createdAt,value
2018-11-28T00:00:07.363Z,942.86
2018-11-28T00:02:33.710Z,942.92
2018-11-28T00:05:00.010Z,942.97
2018-11-28T00:07:26.310Z,942.95
2018-11-28T00:09:52.657Z,943.04
2018-11-28T00:12:18.977Z,943.03
2018-11-28T00:14:45.290Z,943.05
2018-11-28T00:17:11.592Z,943.09
2018-11-28T00:19:37.903Z,943.09
2018-11-28T00:22:04.230Z,943.21
2018-11-28T00:24:30.544Z,943.24
2018-11-28T00:26:56.849Z,943.21
2018-11-28T00:29:23.142Z,943.23
2018-11-28T00:31:49.489Z,943.27
2018-11-28T00:34:15.792Z,943.24
2018-11-28T00:36:42.110Z,943.29
2018-11-28T00:39:08.429Z,943.31
2018-11-28T00:41:34.741Z,943.42
2018-11-28T00:44:01.041Z,943.38
2018-11-28T00:46:27.369Z,943.43
2018-11-28T00:48:53.675Z,943.42
2018-11-28T00:51:19.996Z,943.38
2018-11-28T00:53:46.304Z,943.41
2018-11-28T00:56:12.677Z,943.42
2018-11-28T00:58:39.000Z,943.46
2018-11-28T01:01:05.319Z,943.40
2018-11-28T01:03:31.654Z,943.47
2018-11-28T01:05:57.967Z,943.42
2018-11-28T01:08:24.260Z,943.40
2018-11-28T01:10:50.574Z,943.45
2018-11-28T01:13:16.897Z,943.45
2018-11-28T01:15:43.185Z,943.45
2018-11-28T01:18:09.540Z,943.51
2018-11-28T01:20:35.869Z,943.47
2018-11-28T01:23:02.163Z,943.50
2018-11-28T01:25:28.455Z,943.41
2018-11-28T01:27:54.799Z,943.43
2018-11-28T01:30:21.113Z,943.49
2018-11-28T01:32:47.458Z,943.45
2018-11-28T01:35:13.792Z,943.44
2018-11-28T01:37:40.110Z,943.44
2018-11-28T01:40:06.401Z,943.47
2018-11-28T01:42:32.726Z,943.49
2018-11-28T01:44:59.038Z,943.56
2018-11-28T01:47:25.358Z,943.54
2018-11-28T01:49:51.686Z,943.59
2018-11-28T01:52:18.007Z,943.58
2018-11-28T01:54:44.372Z,943.69
2018-11-28T01:57:10.723Z,943.64
2018-11-28T01:59:37.056Z,943.74
2018-11-28T02:02:03.376Z,943.72
2018-11-28T02:04:29.671Z,943.81
2018-11-28T02:06:56.009Z,943.82
2018-11-28T02:09:22.314Z,943.90
2018-11-28T02:11:48.619Z,943.87
2018-11-28T02:14:14.933Z,943.90
2018-11-28T02:16:41.249Z,943.98
2018-11-28T02:19:07.552Z,944.04
2018-11-28T02:21:33.863Z,944.08
2018-11-28T02:24:00.195Z,944.14
2018-11-28T02:26:26.489Z,944.15
2018-11-28T02:28:52.802Z,944.21
2018-11-28T02:31:19.113Z,944.19
2018-11-28T02:33:45.443Z,944.25
2018-11-28T02:36:11.792Z,944.27
2018-11-28T02:38:38.100Z,944.27
2018-11-28T02:41:04.391Z,944.32
2018-11-28T02:43:30.707Z,944.37
2018-11-28T02:45:57.045Z,944.35
2018-11-28T02:48:23.356Z,944.37
2018-11-28T02:50:49.691Z,944.40
2018-11-28T02:53:16.021Z,944.47
2018-11-28T02:55:42.319Z,944.46
2018-11-28T02:58:08.633Z,944.51
2018-11-28T03:00:34.966Z,944.61
2018-11-28T03:03:01.290Z,944.58
2018-11-28T03:05:27.644Z,944.63
2018-11-28T03:07:53.934Z,944.69
2018-11-28T03:10:20.251Z,944.75
2018-11-28T03:12:46.579Z,944.74
2018-11-28T03:15:12.902Z,944.76
2018-11-28T03:17:39.230Z,944.92
2018-11-28T03:20:05.560Z,944.92
2018-11-28T03:22:31.870Z,944.90
2018-11-28T03:24:58.211Z,944.92
2018-11-28T03:27:24.517Z,944.99
2018-11-28T03:29:50.847Z,945.03
2018-11-28T03:32:17.159Z,945.13
2018-11-28T03:34:45.553Z,945.20
2018-11-28T03:37:09.802Z,945.18
2018-11-28T03:39:36.114Z,945.16
2018-11-28T03:42:02.418Z,945.17
2018-11-28T03:44:28.703Z,945.19
2018-11-28T03:46:55.066Z,945.21
2018-11-28T03:49:21.363Z,945.32
2018-11-28T03:51:47.709Z,945.35
2018-11-28T03:54:14.045Z,945.34
2018-11-28T03:56:40.373Z,945.40
2018-11-28T03:59:06.717Z,945.35
2018-11-28T04:01:33.053Z,945.42
2018-11-28T04:03:59.360Z,945.48
2018-11-28T04:06:25.654Z,945.46
2018-11-28T04:08:52.000Z,945.51
2018-11-28T04:11:18.302Z,945.57
2018-11-28T04:13:44.595Z,945.61
2018-11-28T04:16:10.899Z,945.67
2018-11-28T04:18:37.216Z,945.75
2018-11-28T04:21:03.536Z,945.85
2018-11-28T04:23:29.876Z,945.86
2018-11-28T04:25:56.165Z,945.83
2018-11-28T04:28:22.491Z,945.85
2018-11-28T04:30:48.876Z,945.90
2018-11-28T04:33:15.165Z,945.89
2018-11-28T04:35:41.487Z,945.86
2018-11-28T04:38:07.824Z,945.97
2018-11-28T04:40:34.156Z,945.99
2018-11-28T04:43:00.463Z,946.01
2018-11-28T04:45:26.810Z,946.03
2018-11-28T04:47:53.112Z,946.05
2018-11-28T04:50:19.432Z,946.05
2018-11-28T04:52:45.777Z,946.09
2018-11-28T04:55:12.078Z,946.12
2018-11-28T04:57:38.373Z,946.12
2018-11-28T05:00:04.692Z,946.17
2018-11-28T05:02:31.023Z,946.26
2018-11-28T05:04:57.310Z,946.24
2018-11-28T05:07:23.682Z,946.36
2018-11-28T05:09:49.999Z,946.39
2018-11-28T05:12:16.311Z,946.36
2018-11-28T05:14:42.614Z,946.39
2018-11-28T05:17:08.940Z,946.44
2018-11-28T05:19:35.285Z,946.55
2018-11-28T05:22:01.543Z,946.53
2018-11-28T05:24:27.908Z,946.61
2018-11-28T05:26:54.211Z,946.64
2018-11-28T05:29:20.524Z,946.70
2018-11-28T05:31:46.833Z,946.68
2018-11-28T05:34:13.226Z,946.71
2018-11-28T05:36:39.530Z,946.87
2018-11-28T05:39:05.863Z,946.87
2018-11-28T05:41:32.232Z,946.86
2018-11-28T05:43:58.551Z,946.91
2018-11-28T05:46:24.860Z,946.95
2018-11-28T05:48:51.190Z,946.98
2018-11-28T05:51:17.517Z,947.03
2018-11-28T05:53:43.839Z,947.09
2018-11-28T05:56:10.213Z,947.11
2018-11-28T05:58:36.538Z,947.16
2018-11-28T06:01:02.824Z,947.23
2018-11-28T06:03:29.130Z,947.28
2018-11-28T06:05:55.448Z,947.30
2018-11-28T06:08:21.767Z,947.37
2018-11-28T06:10:48.084Z,947.47
2018-11-28T06:13:14.411Z,947.53
2018-11-28T06:15:40.736Z,947.68
2018-11-28T06:18:07.036Z,947.62
2018-11-28T06:20:33.379Z,947.69
2018-11-28T06:22:59.675Z,947.70
2018-11-28T06:25:26.000Z,947.75
2018-11-28T06:27:52.319Z,947.72
2018-11-28T06:30:18.676Z,947.85
2018-11-28T06:32:51.045Z,947.90
2018-11-28T06:35:11.421Z,947.98
2018-11-28T06:37:37.723Z,948.05
2018-11-28T06:40:04.056Z,948.00
2018-11-28T06:42:30.367Z,948.03
2018-11-28T06:44:56.683Z,947.98
2018-11-28T06:47:23.023Z,948.05
2018-11-28T06:49:49.330Z,948.07
2018-11-28T06:52:15.644Z,948.11
2018-11-28T06:54:41.947Z,948.20
2018-11-28T06:57:08.321Z,948.22
2018-11-28T06:59:34.705Z,948.29
2018-11-28T07:02:01.009Z,948.30
2018-11-28T07:04:27.344Z,948.38
2018-11-28T07:06:53.729Z,948.39
2018-11-28T07:09:20.038Z,948.49
2018-11-28T07:11:46.341Z,948.51
2018-11-28T07:14:12.682Z,948.53
2018-11-28T07:16:39.023Z,948.53
2018-11-28T07:19:05.337Z,948.61
2018-11-28T07:21:31.684Z,948.65
2018-11-28T07:23:57.997Z,948.61
2018-11-28T07:26:24.320Z,948.70
2018-11-28T07:28:50.631Z,948.71
2018-11-28T07:31:16.938Z,948.76
2018-11-28T07:33:43.255Z,948.75
2018-11-28T07:36:09.611Z,948.81
2018-11-28T07:38:35.922Z,948.76
2018-11-28T07:41:02.213Z,948.87
2018-11-28T07:43:28.549Z,948.90
2018-11-28T07:45:54.854Z,948.94
2018-11-28T07:48:21.148Z,948.95
2018-11-28T07:50:47.633Z,949.01
2018-11-28T07:53:13.801Z,949.05
2018-11-28T07:55:40.139Z,949.11
2018-11-28T07:58:06.450Z,949.16
2018-11-28T08:00:32.766Z,949.16
2018-11-28T08:02:59.057Z,949.26
2018-11-28T08:05:25.429Z,949.25
2018-11-28T08:07:51.731Z,949.33
2018-11-28T08:10:18.087Z,949.40
2018-11-28T08:12:44.420Z,949.41
2018-11-28T08:15:10.753Z,949.44
2018-11-28T08:17:37.062Z,949.53
2018-11-28T08:20:03.381Z,949.55
2018-11-28T08:22:29.720Z,949.64
2018-11-28T08:24:56.023Z,949.72
2018-11-28T08:27:22.352Z,949.74
2018-11-28T08:29:48.679Z,949.76
2018-11-28T08:32:15.003Z,949.76
2018-11-28T08:34:41.459Z,949.69
2018-11-28T08:37:07.776Z,949.80
2018-11-28T08:39:34.108Z,949.87
2018-11-28T08:42:00.407Z,949.90
2018-11-28T08:44:26.730Z,949.96
2018-11-28T08:46:53.063Z,949.98
2018-11-28T08:49:19.392Z,949.97
2018-11-28T08:51:45.686Z,950.01
2018-11-28T08:54:14.369Z,950.04
2018-11-28T08:56:38.586Z,950.04
2018-11-28T08:59:04.966Z,950.05
2018-11-28T09:01:31.259Z,950.15
2018-11-28T09:03:57.618Z,950.17
2018-11-28T09:06:23.907Z,950.23
2018-11-28T09:08:50.202Z,950.20
2018-11-28T09:11:16.544Z,950.31
2018-11-28T09:13:42.870Z,950.30
2018-11-28T09:16:09.201Z,950.31
2018-11-28T09:18:35.502Z,950.34
2018-11-28T09:21:01.813Z,950.32
2018-11-28T09:23:28.137Z,950.31
2018-11-28T09:25:54.529Z,950.37
2018-11-28T09:28:20.841Z,950.34
2018-11-28T09:30:47.277Z,950.33
2018-11-28T09:33:13.670Z,950.39
2018-11-28T09:35:43.569Z,950.22
2018-11-28T09:38:08.636Z,950.47
2018-11-28T09:40:34.949Z,950.49
2018-11-28T09:43:01.272Z,950.53
2018-11-28T09:45:27.677Z,950.50
2018-11-28T09:47:54.008Z,950.52
2018-11-28T09:50:20.310Z,950.55
2018-11-28T09:52:46.626Z,950.55
2018-11-28T09:55:12.936Z,950.58
2018-11-28T09:57:39.275Z,950.62
2018-11-28T10:00:07.023Z,950.67
2018-11-28T10:02:33.324Z,950.68
2018-11-28T10:05:02.731Z,950.62
2018-11-28T10:07:25.975Z,950.67
2018-11-28T10:09:52.373Z,950.71
2018-11-28T10:12:19.784Z,950.70
2018-11-28T10:14:45.051Z,950.67
2018-11-28T10:17:11.386Z,950.70
2018-11-28T10:19:37.696Z,950.74
2018-11-28T10:22:04.018Z,950.82
2018-11-28T10:24:30.347Z,950.82
2018-11-28T10:26:56.659Z,950.81
2018-11-28T10:29:22.955Z,950.86
2018-11-28T10:31:49.282Z,950.88
2018-11-28T10:34:15.619Z,950.87
2018-11-28T10:36:41.987Z,950.93
2018-11-28T10:39:08.319Z,950.89
2018-11-28T10:41:34.693Z,950.94
2018-11-28T10:44:00.942Z,950.97
2018-11-28T10:46:27.668Z,951.03
2018-11-28T10:48:53.552Z,951.00
2018-11-28T10:51:19.870Z,950.97
2018-11-28T10:53:46.168Z,951.00
2018-11-28T10:56:12.476Z,951.01
2018-11-28T10:58:38.796Z,951.06
2018-11-28T11:01:05.116Z,951.06
2018-11-28T11:03:31.454Z,951.05
2018-11-28T11:05:57.780Z,951.08
2018-11-28T11:08:24.096Z,951.11
2018-11-28T11:10:50.424Z,951.05
2018-11-28T11:13:16.766Z,951.08
2018-11-28T11:15:43.069Z,951.13
2018-11-28T11:18:10.733Z,951.13
2018-11-28T11:20:35.742Z,951.13
2018-11-28T11:23:02.073Z,951.21
2018-11-28T11:25:28.431Z,951.20
2018-11-28T11:27:54.758Z,951.21
2018-11-28T11:30:21.096Z,951.35
2018-11-28T11:32:47.437Z,951.37
2018-11-28T11:35:13.722Z,951.37
2018-11-28T11:37:40.034Z,951.42
2018-11-28T11:40:06.373Z,951.43
2018-11-28T11:42:32.681Z,951.47
2018-11-28T11:44:59.031Z,951.49
2018-11-28T11:47:25.413Z,951.50
2018-11-28T11:49:51.732Z,951.57
2018-11-28T11:52:18.092Z,951.59
2018-11-28T11:54:44.422Z,951.57
2018-11-28T11:57:10.800Z,951.58
2018-11-28T11:59:37.126Z,951.54
2018-11-28T12:02:03.444Z,951.62
2018-11-28T12:04:29.785Z,951.59
2018-11-28T12:06:56.090Z,951.67
2018-11-28T12:09:22.419Z,951.65
2018-11-28T12:11:48.737Z,951.70
2018-11-28T12:14:15.145Z,951.76
2018-11-28T12:16:41.452Z,951.76
2018-11-28T12:19:07.847Z,951.78
2018-11-28T12:21:34.122Z,951.85
2018-11-28T12:24:00.474Z,951.87
2018-11-28T12:26:26.818Z,951.90
2018-11-28T12:28:53.135Z,951.99
2018-11-28T12:31:19.489Z,952.02
2018-11-28T12:33:45.784Z,952.02
2018-11-28T12:36:12.157Z,952.07
2018-11-28T12:38:40.892Z,952.05
2018-11-28T12:41:07.210Z,952.10
2018-11-28T12:43:33.552Z,952.21
2018-11-28T12:45:59.935Z,952.26
2018-11-28T12:48:26.253Z,952.25
2018-11-28T12:50:52.601Z,952.28
2018-11-28T12:53:18.966Z,952.29
2018-11-28T12:55:45.289Z,952.31
2018-11-28T12:58:11.604Z,952.36
2018-11-28T13:00:37.938Z,952.36
2018-11-28T13:03:04.230Z,952.47
2018-11-28T13:05:30.535Z,952.48
2018-11-28T13:07:56.892Z,952.51
2018-11-28T13:10:23.285Z,952.52
2018-11-28T13:12:49.609Z,952.58
2018-11-28T13:15:15.979Z,952.63
2018-11-28T13:17:42.279Z,952.65
2018-11-28T13:20:08.628Z,952.67
2018-11-28T13:22:34.964Z,952.73
2018-11-28T13:25:01.355Z,952.77
2018-11-28T13:27:27.692Z,952.93
2018-11-28T13:29:54.026Z,952.98
2018-11-28T13:32:20.406Z,952.98
2018-11-28T13:34:46.751Z,953.03
2018-11-28T13:37:13.113Z,953.14
2018-11-28T13:39:39.494Z,953.24
2018-11-28T13:42:05.850Z,953.24
2018-11-28T13:44:32.165Z,953.33
2018-11-28T13:46:58.498Z,953.41
2018-11-28T13:49:24.876Z,953.45
2018-11-28T13:51:51.178Z,953.50
2018-11-28T13:54:21.374Z,953.49
2018-11-28T13:57:02.993Z,953.46
2018-11-28T13:59:10.292Z,953.55
2018-11-28T14:01:36.607Z,953.57
2018-11-28T14:04:02.935Z,953.66
2018-11-28T14:06:29.287Z,953.70
2018-11-28T14:08:55.629Z,953.66
2018-11-28T14:11:21.939Z,953.76
2018-11-28T14:13:48.236Z,953.75
2018-11-28T14:16:14.560Z,953.77
2018-11-28T14:18:40.909Z,953.81
2018-11-28T14:21:07.235Z,953.88
2018-11-28T14:23:33.550Z,953.93
2018-11-28T14:25:59.889Z,953.93
2018-11-28T14:28:26.212Z,954.00
2018-11-28T14:30:52.543Z,954.08
2018-11-28T14:33:18.886Z,954.10
2018-11-28T14:35:45.309Z,954.15
2018-11-28T14:38:11.601Z,954.22
2018-11-28T14:40:37.911Z,954.22
2018-11-28T14:43:04.232Z,954.19
2018-11-28T14:45:30.554Z,954.32
2018-11-28T14:47:56.894Z,954.33
2018-11-28T14:50:23.194Z,954.45
2018-11-28T14:52:49.568Z,954.51
2018-11-28T14:55:15.846Z,954.54
2018-11-28T14:57:42.173Z,954.59
2018-11-28T15:00:08.523Z,954.64
2018-11-28T15:02:34.840Z,954.62
2018-11-28T15:05:01.173Z,954.72
2018-11-28T15:07:27.487Z,954.78
2018-11-28T15:09:53.831Z,954.84
2018-11-28T15:12:20.152Z,954.88
2018-11-28T15:14:46.478Z,954.94
2018-11-28T15:17:12.852Z,955.04
2018-11-28T15:19:39.209Z,955.17
2018-11-28T15:22:05.616Z,955.18
2018-11-28T15:24:31.906Z,955.20
2018-11-28T15:26:58.240Z,955.26
2018-11-28T15:29:24.546Z,955.28
2018-11-28T15:31:50.892Z,955.29
2018-11-28T15:34:17.220Z,955.28
2018-11-28T15:36:43.514Z,955.36
2018-11-28T15:39:09.818Z,955.35
2018-11-28T15:41:36.149Z,955.36
2018-11-28T15:44:02.467Z,955.42
2018-11-28T15:46:28.815Z,955.46
2018-11-28T15:48:55.124Z,955.55
2018-11-28T15:51:21.419Z,955.49
2018-11-28T15:53:47.719Z,955.50
2018-11-28T15:56:14.065Z,955.60
2018-11-28T15:58:40.402Z,955.62
2018-11-28T16:01:06.698Z,955.68
2018-11-28T16:03:33.037Z,955.74
2018-11-28T16:05:59.353Z,955.87
2018-11-28T16:08:25.651Z,955.86
2018-11-28T16:10:51.983Z,955.83
2018-11-28T16:13:18.290Z,955.85
2018-11-28T16:15:44.574Z,955.85
2018-11-28T16:18:10.919Z,955.94
2018-11-28T16:20:37.293Z,956.01
2018-11-28T16:23:04.788Z,956.04
2018-11-28T16:25:29.988Z,956.07
2018-11-28T16:27:56.311Z,956.12
2018-11-28T16:30:22.675Z,956.19
2018-11-28T16:32:48.977Z,956.18
2018-11-28T16:35:15.331Z,956.25
2018-11-28T16:37:41.665Z,956.28
2018-11-28T16:40:07.983Z,956.29
2018-11-28T16:42:34.277Z,956.42
2018-11-28T16:45:00.614Z,956.46
2018-11-28T16:47:26.904Z,956.49
2018-11-28T16:49:53.227Z,956.50
2018-11-28T16:52:20.262Z,956.60
2018-11-28T16:54:46.554Z,956.64
2018-11-28T16:57:12.928Z,956.65
2018-11-28T16:59:39.299Z,956.69
2018-11-28T17:02:05.590Z,956.69
2018-11-28T17:04:31.997Z,956.66
2018-11-28T17:06:58.510Z,956.70
2018-11-28T17:09:24.976Z,956.82
2018-11-28T17:11:51.354Z,956.86
2018-11-28T17:14:17.659Z,956.89
2018-11-28T17:16:43.996Z,956.97
2018-11-28T17:19:10.302Z,956.97
2018-11-28T17:21:36.600Z,957.02
2018-11-28T17:24:02.945Z,957.07
2018-11-28T17:26:29.235Z,957.12
2018-11-28T17:28:55.565Z,957.12
2018-11-28T17:31:21.893Z,957.19
2018-11-28T17:33:48.199Z,957.25
2018-11-28T17:36:14.545Z,957.26
2018-11-28T17:38:40.867Z,957.31
2018-11-28T17:41:07.228Z,957.43
2018-11-28T17:43:33.552Z,957.39
2018-11-28T17:45:59.883Z,957.45
2018-11-28T17:48:26.171Z,957.45
2018-11-28T17:50:52.494Z,957.48
2018-11-28T17:53:18.830Z,957.51
2018-11-28T17:55:45.263Z,957.58
2018-11-28T17:58:11.588Z,957.53
2018-11-28T18:00:37.898Z,957.59
2018-11-28T18:03:04.198Z,957.66
2018-11-28T18:05:30.511Z,957.70
2018-11-28T18:07:56.846Z,957.70
2018-11-28T18:10:23.170Z,957.81
2018-11-28T18:12:49.506Z,957.82
2018-11-28T18:15:15.765Z,957.81
2018-11-28T18:17:42.097Z,957.86
2018-11-28T18:20:08.430Z,957.84
2018-11-28T18:22:34.739Z,957.94
2018-11-28T18:25:01.072Z,957.95
2018-11-28T18:27:27.383Z,958.03
2018-11-28T18:29:53.704Z,957.91
2018-11-28T18:32:20.038Z,958.00
2018-11-28T18:34:46.355Z,957.99
2018-11-28T18:37:12.681Z,958.05
2018-11-28T18:39:38.997Z,958.02
2018-11-28T18:42:05.322Z,958.03
2018-11-28T18:44:31.623Z,958.13
2018-11-28T18:46:57.933Z,958.02
2018-11-28T18:49:24.255Z,958.07
2018-11-28T18:51:51.646Z,958.18
2018-11-28T18:54:17.933Z,958.22
2018-11-28T18:56:44.247Z,958.23
2018-11-28T18:59:10.579Z,958.29
2018-11-28T19:01:36.892Z,958.26
2018-11-28T19:04:03.215Z,958.42
2018-11-28T19:06:29.558Z,958.43
2018-11-28T19:08:55.866Z,958.51
2018-11-28T19:11:22.184Z,958.56
2018-11-28T19:13:48.496Z,958.56
2018-11-28T19:16:14.829Z,958.56
2018-11-28T19:18:41.159Z,958.59
2018-11-28T19:21:07.467Z,958.59
2018-11-28T19:23:33.781Z,958.71
2018-11-28T19:26:00.143Z,958.71
2018-11-28T19:28:26.449Z,958.64
2018-11-28T19:30:52.778Z,958.74
2018-11-28T19:33:19.115Z,958.76
2018-11-28T19:35:45.493Z,958.81
2018-11-28T19:38:11.811Z,958.76
2018-11-28T19:40:38.130Z,958.84
2018-11-28T19:43:04.532Z,958.87
2018-11-28T19:45:30.771Z,958.96
2018-11-28T19:47:57.072Z,959.04
2018-11-28T19:50:23.409Z,959.03
2018-11-28T19:52:49.701Z,959.06
2018-11-28T19:55:16.006Z,959.10
2018-11-28T19:57:42.352Z,959.16
2018-11-28T20:00:08.640Z,959.09
2018-11-28T20:02:34.949Z,959.14
2018-11-28T20:05:01.254Z,959.27
2018-11-28T20:07:27.551Z,959.20
2018-11-28T20:09:53.864Z,959.28
2018-11-28T20:12:20.207Z,959.38
2018-11-28T20:14:46.579Z,959.41
2018-11-28T20:17:12.859Z,959.39
2018-11-28T20:19:39.199Z,959.39
2018-11-28T20:22:05.517Z,959.43
2018-11-28T20:24:31.868Z,959.43
2018-11-28T20:26:58.260Z,959.55
2018-11-28T20:29:24.478Z,959.59
2018-11-28T20:31:50.791Z,959.56
2018-11-28T20:34:17.105Z,959.66
2018-11-28T20:36:43.414Z,959.73
2018-11-28T20:39:09.723Z,959.73
2018-11-28T20:41:36.062Z,959.69
2018-11-28T20:44:02.353Z,959.80
2018-11-28T20:46:28.646Z,959.79
2018-11-28T20:48:54.972Z,959.83
2018-11-28T20:51:21.290Z,959.84
2018-11-28T20:53:47.579Z,959.85
2018-11-28T20:56:13.869Z,959.89
2018-11-28T20:58:40.168Z,959.98
2018-11-28T21:01:06.481Z,959.97
2018-11-28T21:03:32.808Z,959.98
2018-11-28T21:05:59.173Z,960.03
2018-11-28T21:08:25.463Z,960.02
2018-11-28T21:10:51.749Z,960.05
2018-11-28T21:13:18.065Z,960.06
2018-11-28T21:15:44.370Z,960.08
2018-11-28T21:18:10.662Z,960.08
2018-11-28T21:20:36.994Z,960.09
2018-11-28T21:23:03.314Z,960.17
2018-11-28T21:25:29.637Z,960.22
2018-11-28T21:27:55.943Z,960.30
2018-11-28T21:30:22.289Z,960.28
2018-11-28T21:32:48.586Z,960.27
2018-11-28T21:35:14.905Z,960.28
2018-11-28T21:37:43.940Z,960.36
2018-11-28T21:40:10.251Z,960.33
2018-11-28T21:42:36.561Z,960.37
2018-11-28T21:45:02.908Z,960.29
2018-11-28T21:47:29.190Z,960.32
2018-11-28T21:49:55.492Z,960.39
2018-11-28T21:52:21.824Z,960.32
2018-11-28T21:54:48.134Z,960.38
2018-11-28T21:57:14.417Z,960.49
2018-11-28T21:59:40.782Z,960.52
2018-11-28T22:02:07.076Z,960.54
2018-11-28T22:04:33.391Z,960.60
2018-11-28T22:06:59.708Z,960.62
2018-11-28T22:09:26.115Z,960.57
2018-11-28T22:11:52.429Z,960.58
2018-11-28T22:14:18.726Z,960.65
2018-11-28T22:16:45.034Z,960.60
2018-11-28T22:19:11.373Z,960.63
2018-11-28T22:21:37.693Z,960.67
2018-11-28T22:24:04.022Z,960.63
2018-11-28T22:26:30.345Z,960.64
2018-11-28T22:28:56.654Z,960.66
2018-11-28T22:31:22.979Z,960.64
2018-11-28T22:33:49.289Z,960.65
2018-11-28T22:36:15.602Z,960.67
2018-11-28T22:38:41.927Z,960.63
2018-11-28T22:41:08.273Z,960.61
2018-11-28T22:43:34.660Z,960.73
2018-11-28T22:46:00.989Z,960.70
2018-11-28T22:48:27.302Z,960.79
2018-11-28T22:50:53.639Z,960.75
2018-11-28T22:53:20.017Z,960.82
2018-11-28T22:55:46.337Z,960.86
2018-11-28T22:58:12.646Z,960.90
2018-11-28T23:00:38.956Z,960.88
2018-11-28T23:03:05.266Z,960.89
2018-11-28T23:05:31.555Z,960.87
2018-11-28T23:07:57.873Z,960.95
2018-11-28T23:10:24.179Z,960.81
2018-11-28T23:12:50.485Z,960.91
2018-11-28T23:15:16.776Z,960.85
2018-11-28T23:17:43.126Z,960.89
2018-11-28T23:20:09.415Z,960.86
2018-11-28T23:22:35.716Z,960.91
2018-11-28T23:25:02.017Z,960.97
2018-11-28T23:27:28.340Z,960.95
2018-11-28T23:29:54.636Z,960.94
2018-11-28T23:32:20.957Z,960.94
2018-11-28T23:34:47.261Z,960.89
2018-11-28T23:37:13.582Z,960.89
2018-11-28T23:39:39.987Z,960.95
2018-11-28T23:42:06.296Z,961.01
2018-11-28T23:44:32.613Z,961.02
2018-11-28T23:46:58.907Z,961.05
2018-11-28T23:49:25.250Z,961.09
2018-11-28T23:51:51.551Z,961.12
2018-11-28T23:54:17.881Z,961.11
2018-11-28T23:56:44.203Z,961.16
2018-11-28T23:59:10.523Z,961.14
